Time;durP1;ratioP1;P1;durP2;ratioP2;P2;SDS_P1;SDS_P2;PMS_P1;PMS_P2;Temp;Humidity;BMP_temperature;BMP_pressure;BME280_temperature;BME280_humidity;BME280_pressure;Samples;Min_cycle;Max_cycle;Signal;HPM_P1;HPM_P2
2022/08/10 00:00:45;;;;;;;5.38;3.10;;;16.30;99.90;;;;;;5074925;28;20047;-71
2022/08/10 00:03:11;;;;;;;4.00;3.05;;;16.30;99.90;;;;;;5074070;28;20046;-71
2022/08/10 00:05:36;;;;;;;3.38;3.08;;;16.30;99.90;;;;;;5073109;28;20040;-71
2022/08/10 00:08:03;;;;;;;4.15;3.10;;;16.20;99.90;;;;;;5028631;28;20041;-71
2022/08/10 00:10:29;;;;;;;3.22;3.00;;;16.20;99.90;;;;;;5072274;28;20130;-71
2022/08/10 00:12:54;;;;;;;3.40;2.75;;;16.20;99.90;;;;;;5088519;28;20068;-71
2022/08/10 00:15:22;;;;;;;3.47;3.15;;;16.20;99.90;;;;;;5072991;28;20044;-71
2022/08/10 00:17:47;;;;;;;4.90;3.42;;;16.20;99.90;;;;;;5067161;28;20047;-71
2022/08/10 00:20:14;;;;;;;4.70;3.50;;;16.20;99.90;;;;;;5068336;28;20503;-71
2022/08/10 00:22:39;;;;;;;3.85;3.35;;;16.20;99.90;;;;;;5090631;28;20036;-71
2022/08/10 00:25:07;;;;;;;3.25;2.90;;;16.10;99.90;;;;;;5067069;28;20038;-71
2022/08/10 00:27:33;;;;;;;3.17;2.85;;;16.10;99.90;;;;;;5066998;28;20040;-71
2022/08/10 00:29:59;;;;;;;3.50;3.20;;;16.10;99.90;;;;;;5069196;28;20033;-71
2022/08/10 00:32:25;;;;;;;3.83;3.40;;;16.00;99.90;;;;;;5084604;28;20085;-71
2022/08/10 00:34:51;;;;;;;4.82;3.40;;;16.00;99.90;;;;;;5070427;28;20036;-71
2022/08/10 00:37:17;;;;;;;3.40;3.10;;;16.00;99.90;;;;;;5073119;28;20231;-71
2022/08/10 00:39:43;;;;;;;4.40;3.65;;;16.00;99.90;;;;;;5074708;28;20047;-71
2022/08/10 00:42:10;;;;;;;4.32;3.50;;;16.00;99.90;;;;;;5071426;28;20495;-71
2022/08/10 00:44:44;;;;;;;3.63;3.33;;;15.90;99.90;;;;;;5072665;28;20036;-71
2022/08/10 00:47:12;;;;;;;4.05;3.65;;;15.90;99.90;;;;;;5072382;28;20044;-71
2022/08/10 00:49:38;;;;;;;5.35;4.20;;;15.90;99.90;;;;;;5077647;28;20032;-71
2022/08/10 00:52:04;;;;;;;4.30;3.90;;;15.80;99.90;;;;;;5072195;28;20058;-71
2022/08/10 00:54:31;;;;;;;4.57;3.92;;;15.80;99.90;;;;;;5059848;28;20396;-71
2022/08/10 00:56:57;;;;;;;3.78;3.47;;;15.80;99.90;;;;;;5065227;28;20074;-71
2022/08/10 00:59:23;;;;;;;3.90;3.60;;;15.80;99.90;;;;;;5062210;28;20055;-71
2022/08/10 01:01:49;;;;;;;5.72;4.00;;;15.80;99.90;;;;;;5073214;28;20043;-71
2022/08/10 01:04:14;;;;;;;4.15;3.85;;;15.70;99.90;;;;;;5092408;28;20028;-71
2022/08/10 01:07:21;;;;;;;4.20;3.80;;;15.70;99.90;;;;;;5074082;28;20127;-71
2022/08/10 01:10:11;;;;;;;3.75;3.45;;;15.70;99.90;;;;;;5056099;28;20067;-71
2022/08/10 01:12:50;;;;;;;3.65;3.30;;;15.70;99.90;;;;;;5068135;28;20036;-71
2022/08/10 01:15:32;;;;;;;5.10;3.53;;;15.70;99.90;;;;;;5074402;28;20043;-71
2022/08/10 01:18:17;;;;;;;4.55;3.83;;;15.60;99.90;;;;;;5062509;28;20047;-71
2022/08/10 01:21:11;;;;;;;4.18;3.88;;;15.60;99.90;;;;;;5073729;28;20040;-71
2022/08/10 01:23:59;;;;;;;4.70;4.15;;;15.50;99.90;;;;;;5063671;28;20124;-71
2022/08/10 01:26:40;;;;;;;4.57;4.18;;;15.50;99.90;;;;;;5064852;28;20047;-71
2022/08/10 01:29:26;;;;;;;4.63;4.22;;;15.50;99.90;;;;;;5037913;28;20129;-71
2022/08/10 01:31:56;;;;;;;4.57;4.10;;;15.50;99.90;;;;;;5070492;28;20065;-71
2022/08/10 01:34:28;;;;;;;5.18;4.53;;;15.40;99.90;;;;;;5073630;28;20079;-71
2022/08/10 01:37:05;;;;;;;5.07;4.30;;;15.40;99.90;;;;;;5055955;28;20056;-71
2022/08/10 01:39:39;;;;;;;4.90;4.40;;;15.40;99.90;;;;;;5057513;28;20399;-71
2022/08/10 01:42:10;;;;;;;4.97;4.40;;;15.40;99.90;;;;;;5075405;28;20047;-71
2022/08/10 01:44:43;;;;;;;6.60;4.30;;;15.40;99.90;;;;;;5074117;28;20106;-71
2022/08/10 01:50:12;;;;;;;5.57;4.80;;;15.40;99.90;;;;;;5057443;28;20036;-71
2022/08/10 01:52:41;;;;;;;7.75;5.78;;;15.40;99.90;;;;;;5070481;28;20119;-71
2022/08/10 01:55:09;;;;;;;9.52;6.57;;;15.30;99.90;;;;;;5060281;28;20044;-71
2022/08/10 01:57:37;;;;;;;6.43;5.60;;;15.40;99.90;;;;;;5063956;28;20093;-71
2022/08/10 02:00:04;;;;;;;5.75;5.25;;;15.30;99.90;;;;;;5074783;28;20047;-71
2022/08/10 02:02:32;;;;;;;5.53;4.90;;;15.40;99.90;;;;;;5076391;28;20044;-71
2022/08/10 02:05:00;;;;;;;6.10;5.53;;;15.40;99.90;;;;;;5070659;28;20044;-71
2022/08/10 02:07:29;;;;;;;6.00;5.38;;;15.40;99.90;;;;;;5060211;28;20440;-71
2022/08/10 02:09:58;;;;;;;6.35;5.75;;;15.40;99.90;;;;;;5076721;28;20040;-71
2022/08/10 02:12:28;;;;;;;6.20;5.63;;;15.40;99.90;;;;;;5086360;28;20040;-71
2022/08/10 02:14:59;;;;;;;6.07;5.47;;;15.30;99.90;;;;;;5063680;28;20043;-71
2022/08/10 02:17:47;;;;;;;5.93;5.32;;;15.20;99.90;;;;;;5064269;28;20040;-71
2022/08/10 02:20:22;;;;;;;6.70;6.00;;;15.20;99.90;;;;;;5076396;28;20051;-71
2022/08/10 02:22:53;;;;;;;6.93;6.22;;;15.20;99.90;;;;;;5064742;28;20040;-71
2022/08/10 02:25:20;;;;;;;6.20;5.68;;;15.10;99.90;;;;;;5066588;28;20041;-71
2022/08/10 02:27:48;;;;;;;6.72;6.13;;;15.10;99.90;;;;;;5074390;28;20048;-71
2022/08/10 02:30:14;;;;;;;6.45;5.85;;;15.10;99.90;;;;;;5070085;28;20032;-71
2022/08/10 02:32:41;;;;;;;7.80;6.72;;;15.00;99.90;;;;;;5067689;28;20051;-71
2022/08/10 02:35:11;;;;;;;8.05;6.15;;;15.10;99.90;;;;;;5059466;28;20043;-71
2022/08/10 02:37:40;;;;;;;7.85;7.05;;;15.10;99.90;;;;;;5059161;28;20445;-71
2022/08/10 02:40:07;;;;;;;9.70;6.78;;;15.10;99.90;;;;;;5076149;28;20036;-71
2022/08/10 02:42:40;;;;;;;7.78;7.07;;;15.10;99.90;;;;;;5075968;28;20092;-71
2022/08/10 02:45:16;;;;;;;10.00;6.93;;;15.10;99.90;;;;;;5059311;28;20131;-71
2022/08/10 02:47:47;;;;;;;9.32;7.68;;;15.10;99.90;;;;;;5075587;28;20114;-71
2022/08/10 02:50:36;;;;;;;8.95;7.88;;;15.00;99.90;;;;;;5079743;28;20071;-71
2022/08/10 02:53:04;;;;;;;8.50;7.70;;;15.10;99.90;;;;;;5071570;28;20248;-71
2022/08/10 02:55:41;;;;;;;7.88;7.18;;;15.10;99.90;;;;;;5067394;28;20096;-71
2022/08/10 02:58:09;;;;;;;9.07;7.03;;;15.10;99.90;;;;;;5065236;28;20047;-71
2022/08/10 03:00:43;;;;;;;8.68;7.43;;;15.10;99.90;;;;;;5075406;28;20413;-71
2022/08/10 03:03:18;;;;;;;7.97;7.18;;;15.10;99.90;;;;;;5075866;28;20047;-71
2022/08/10 03:05:48;;;;;;;8.00;7.20;;;15.10;99.90;;;;;;5092190;28;20117;-71
2022/08/10 03:08:19;;;;;;;9.40;7.63;;;15.10;99.90;;;;;;5066272;28;20041;-71
2022/08/10 03:10:48;;;;;;;8.45;7.63;;;15.00;99.90;;;;;;5067863;28;20119;-71
2022/08/10 03:13:15;;;;;;;8.57;7.78;;;15.00;99.90;;;;;;5057257;28;20036;-71
2022/08/10 03:15:41;;;;;;;8.40;7.60;;;15.00;99.90;;;;;;5073166;28;20186;-71
2022/08/10 03:18:08;;;;;;;8.57;7.78;;;15.00;99.90;;;;;;5075350;28;20106;-71
2022/08/10 03:20:40;;;;;;;8.02;7.20;;;15.00;99.90;;;;;;5066154;28;20103;-71
2022/08/10 03:23:08;;;;;;;;;;;14.90;99.90;;;;;;5079525;28;20390;-71
2022/08/10 03:25:34;;;;;;;8.57;7.57;;;15.00;99.90;;;;;;5079827;28;19916;-71
2022/08/10 03:28:00;;;;;;;9.50;8.35;;;14.90;99.90;;;;;;5076044;28;20040;-71
2022/08/10 03:30:26;;;;;;;8.35;7.55;;;14.90;99.90;;;;;;5097888;28;20096;-71
2022/08/10 03:32:53;;;;;;;9.00;8.07;;;14.90;99.90;;;;;;5122771;27;20458;-72
2022/08/10 03:35:20;;;;;;;7.82;7.07;;;14.90;99.90;;;;;;5089765;28;20039;-72
2022/08/10 03:37:46;;;;;;;7.65;6.85;;;14.90;99.90;;;;;;5080843;28;21091;-72
2022/08/10 03:40:12;;;;;;;8.10;7.30;;;14.80;99.90;;;;;;5094707;28;20073;-73
2022/08/10 03:42:41;;;;;;;8.18;7.38;;;14.80;99.90;;;;;;5081494;28;20055;-72
2022/08/10 03:45:08;;;;;;;9.85;7.93;;;14.80;99.90;;;;;;5087253;28;20380;-72
2022/08/10 03:47:38;;;;;;;7.65;6.72;;;14.70;99.90;;;;;;5074480;28;20533;-73
2022/08/10 03:50:05;;;;;;;8.32;7.13;;;14.70;99.90;;;;;;5112402;28;20039;-72
2022/08/10 03:52:31;;;;;;;7.25;6.63;;;14.60;99.90;;;;;;5080471;28;20058;-72
2022/08/10 03:54:58;;;;;;;7.40;6.70;;;14.60;99.90;;;;;;5086792;28;20050;-72
2022/08/10 03:57:25;;;;;;;7.95;7.25;;;14.70;99.90;;;;;;5087021;28;20567;-72
2022/08/10 03:59:51;;;;;;;8.25;7.45;;;14.60;99.90;;;;;;5093989;28;20493;-72
2022/08/10 04:02:18;;;;;;;8.50;7.50;;;14.60;99.90;;;;;;5093523;28;20054;-72
2022/08/10 04:04:43;;;;;;;7.60;6.90;;;14.60;99.90;;;;;;5094214;28;20410;-72
2022/08/10 04:07:10;;;;;;;8.13;7.32;;;14.60;99.90;;;;;;5093996;28;20055;-72
2022/08/10 04:09:38;;;;;;;7.95;6.90;;;14.50;99.90;;;;;;5090481;28;20490;-72
2022/08/10 04:12:04;;;;;;;8.00;7.20;;;14.50;99.90;;;;;;5084311;28;20039;-72
2022/08/10 04:14:30;;;;;;;7.00;6.40;;;14.50;99.90;;;;;;5077964;28;20044;-72
2022/08/10 04:16:56;;;;;;;8.98;7.03;;;14.50;99.90;;;;;;5079798;28;20371;-72
2022/08/10 04:19:22;;;;;;;8.27;7.47;;;14.50;99.90;;;;;;5091965;28;20051;-72
2022/08/10 04:22:14;;;;;;;10.93;7.40;;;14.50;99.90;;;;;;5082726;28;20473;-72
2022/08/10 04:24:42;;;;;;;9.45;7.50;;;14.50;99.90;;;;;;5064480;28;20036;-72
2022/08/10 04:27:08;;;;;;;8.75;7.95;;;14.50;99.90;;;;;;5086797;28;20511;-72
2022/08/10 04:29:34;;;;;;;8.07;7.32;;;14.50;99.90;;;;;;5087633;28;20047;-72
2022/08/10 04:32:02;;;;;;;8.68;7.78;;;14.50;99.90;;;;;;5082604;28;20339;-72
2022/08/10 04:34:31;;;;;;;7.78;7.10;;;14.50;99.90;;;;;;5084898;28;20092;-71
2022/08/10 04:36:59;;;;;;;8.60;7.70;;;14.50;99.90;;;;;;5076968;28;20043;-72
2022/08/10 04:39:26;;;;;;;8.73;7.82;;;14.50;99.90;;;;;;5083922;28;20139;-72
2022/08/10 04:41:51;;;;;;;8.23;7.53;;;14.60;99.90;;;;;;5095343;28;20040;-72
2022/08/10 04:44:17;;;;;;;8.32;7.53;;;14.60;99.90;;;;;;5102816;28;20047;-71
2022/08/10 04:46:43;;;;;;;8.90;8.02;;;14.60;99.90;;;;;;5086462;28;20039;-72
2022/08/10 04:49:08;;;;;;;9.82;7.85;;;14.60;99.90;;;;;;5086040;28;20028;-72
2022/08/10 04:51:34;;;;;;;8.32;7.22;;;14.60;99.90;;;;;;5079614;28;20044;-72
2022/08/10 04:54:00;;;;;;;9.35;7.93;;;14.70;99.90;;;;;;5092674;28;20035;-72
2022/08/10 04:56:26;;;;;;;8.52;7.72;;;14.70;99.90;;;;;;5074173;28;20040;-72
2022/08/10 04:58:51;;;;;;;9.43;8.27;;;14.70;99.90;;;;;;5104160;28;20084;-72
2022/08/10 05:01:17;;;;;;;9.07;8.18;;;14.70;99.90;;;;;;5111796;28;20122;-72
2022/08/10 05:03:43;;;;;;;9.77;8.77;;;14.80;99.90;;;;;;5078701;28;20051;-72
2022/08/10 05:06:08;;;;;;;11.20;9.60;;;14.70;99.90;;;;;;5077554;28;20068;-72
2022/08/10 05:08:34;;;;;;;11.65;9.77;;;14.80;99.90;;;;;;5083460;28;20069;-72
2022/08/10 05:11:00;;;;;;;12.43;10.45;;;14.90;99.90;;;;;;5101039;28;20044;-72
2022/08/10 05:13:28;;;;;;;10.68;9.55;;;15.00;99.90;;;;;;5096760;28;20089;-72
2022/08/10 05:15:53;;;;;;;12.18;9.73;;;15.00;99.90;;;;;;5084350;28;20047;-72
2022/08/10 05:18:19;;;;;;;11.43;10.15;;;15.00;99.90;;;;;;5093975;28;20044;-72
2022/08/10 05:20:44;;;;;;;12.45;10.00;;;15.10;99.90;;;;;;5077186;28;20043;-72
2022/08/10 05:23:10;;;;;;;11.57;9.90;;;15.10;99.90;;;;;;5077042;28;20075;-72
2022/08/10 05:25:36;;;;;;;11.38;9.07;;;15.20;99.90;;;;;;5068697;28;20094;-72
2022/08/10 05:28:01;;;;;;;11.25;10.10;;;15.20;99.90;;;;;;5057213;28;20502;-72
2022/08/10 05:30:27;;;;;;;15.60;10.60;;;15.30;99.90;;;;;;5069854;28;20045;-73
2022/08/10 05:32:53;;;;;;;11.95;10.43;;;15.30;99.90;;;;;;5057747;28;20056;-72
2022/08/10 05:35:19;;;;;;;14.13;10.20;;;15.30;99.90;;;;;;5077023;28;20322;-72
2022/08/10 05:37:46;;;;;;;13.40;10.40;;;15.40;99.90;;;;;;5063160;28;20387;-72
2022/08/10 05:40:12;;;;;;;14.68;10.57;;;15.40;99.90;;;;;;5076676;28;20039;-72
2022/08/10 05:42:39;;;;;;;18.80;10.90;;;15.40;99.90;;;;;;5069474;28;20047;-72
2022/08/10 05:45:08;;;;;;;16.30;10.07;;;15.50;99.90;;;;;;5062924;28;20044;-73
2022/08/10 05:47:34;;;;;;;12.30;10.57;;;15.50;99.90;;;;;;5067587;28;20052;-72
2022/08/10 05:49:59;;;;;;;13.98;9.93;;;15.60;99.90;;;;;;5057735;28;20044;-73
2022/08/10 05:52:25;;;;;;;12.77;10.90;;;15.60;99.90;;;;;;5076493;28;20044;-72
2022/08/10 05:54:51;;;;;;;11.55;10.05;;;15.60;99.90;;;;;;5087379;28;20123;-72
2022/08/10 05:57:19;;;;;;;11.95;10.75;;;15.70;99.90;;;;;;5080117;28;20040;-72
2022/08/10 06:00:01;;;;;;;12.48;11.18;;;15.70;99.90;;;;;;5076075;28;20090;-72
2022/08/10 06:02:30;;;;;;;12.27;10.30;;;15.80;99.90;;;;;;5075538;28;20044;-72
2022/08/10 06:05:02;;;;;;;14.68;10.80;;;15.90;99.90;;;;;;5070962;28;20340;-72
2022/08/10 06:07:29;;;;;;;13.57;10.10;;;15.90;99.90;;;;;;5056069;28;20483;-73
2022/08/10 06:09:56;;;;;;;12.38;10.32;;;16.00;99.90;;;;;;5075630;28;20337;-72
2022/08/10 06:12:26;;;;;;;17.02;10.88;;;16.10;99.90;;;;;;5076326;28;20063;-72
2022/08/10 06:15:00;;;;;;;12.40;10.00;;;16.20;99.90;;;;;;5062751;28;20050;-72
2022/08/10 06:17:28;;;;;;;15.40;10.35;;;16.20;99.90;;;;;;5075303;28;20124;-72
2022/08/10 06:19:58;;;;;;;15.52;9.77;;;16.30;99.90;;;;;;5066316;28;20043;-72
2022/08/10 06:22:32;;;;;;;11.52;9.82;;;16.40;99.90;;;;;;5060849;28;20040;-72
2022/08/10 06:25:00;;;;;;;14.20;9.52;;;16.50;99.90;;;;;;5075305;28;20036;-73
2022/08/10 06:27:26;;;;;;;11.18;9.48;;;16.50;99.90;;;;;;5062707;28;20115;-72
2022/08/10 06:29:54;;;;;;;10.70;9.57;;;16.60;99.90;;;;;;5092411;28;20352;-72
2022/08/10 06:32:24;;;;;;;10.77;9.07;;;16.70;99.90;;;;;;5073416;28;20083;-72
2022/08/10 06:34:53;;;;;;;9.73;8.60;;;16.80;99.90;;;;;;5070455;28;20055;-72
2022/08/10 06:37:21;;;;;;;9.55;8.55;;;16.90;99.90;;;;;;5071008;28;20052;-72
2022/08/10 06:39:47;;;;;;;13.13;8.13;;;17.00;99.90;;;;;;5066952;28;20498;-72
2022/08/10 06:42:31;;;;;;;13.30;7.75;;;17.10;99.90;;;;;;5077815;28;20039;-72
2022/08/10 06:45:11;;;;;;;11.20;7.88;;;17.20;99.90;;;;;;5075400;28;20090;-72
2022/08/10 06:47:49;;;;;;;12.10;7.38;;;17.30;99.90;;;;;;5059917;28;20588;-72
2022/08/10 06:50:24;;;;;;;8.90;7.88;;;17.50;99.90;;;;;;5072708;28;20036;-72
2022/08/10 06:52:52;;;;;;;10.27;7.28;;;17.50;99.90;;;;;;5056793;28;20521;-72
2022/08/10 06:55:22;;;;;;;7.38;6.63;;;17.60;99.90;;;;;;5088952;28;20047;-73
2022/08/10 06:57:49;;;;;;;9.40;6.55;;;17.70;99.90;;;;;;5084459;28;20560;-72
2022/08/10 07:00:16;;;;;;;8.02;6.20;;;17.80;99.90;;;;;;5075017;28;20059;-72
2022/08/10 07:02:57;;;;;;;8.23;6.60;;;17.90;99.90;;;;;;5071986;28;20054;-73
2022/08/10 07:05:26;;;;;;;8.23;5.45;;;18.10;99.90;;;;;;5075373;28;20073;-72
2022/08/10 07:07:56;;;;;;;7.40;5.32;;;18.20;99.90;;;;;;5056560;28;20097;-72
2022/08/10 07:10:24;;;;;;;9.05;5.88;;;18.30;99.90;;;;;;5055467;28;20045;-72
2022/08/10 07:12:54;;;;;;;11.35;5.43;;;18.50;99.90;;;;;;5070072;28;20039;-72
2022/08/10 07:15:21;;;;;;;9.10;5.03;;;18.60;99.90;;;;;;5071497;28;20453;-72
2022/08/10 07:17:47;;;;;;;11.30;5.30;;;18.70;99.90;;;;;;5061431;28;20079;-72
2022/08/10 07:20:18;;;;;;;7.00;5.15;;;18.80;99.90;;;;;;5079634;28;20047;-72
2022/08/10 07:22:51;;;;;;;7.00;4.77;;;18.90;99.90;;;;;;5064710;28;20054;-72
2022/08/10 07:25:24;;;;;;;5.82;4.47;;;19.10;99.90;;;;;;5069834;28;20383;-72
2022/08/10 07:27:51;;;;;;;6.72;4.80;;;19.10;99.90;;;;;;5062722;28;20759;-72
2022/08/10 07:30:17;;;;;;;6.60;4.38;;;19.30;99.90;;;;;;5059230;28;20127;-72
2022/08/10 07:32:46;;;;;;;4.80;4.40;;;19.40;99.90;;;;;;5072496;28;20120;-72
2022/08/10 07:35:15;;;;;;;6.00;4.43;;;19.50;99.90;;;;;;5068105;28;20036;-72
2022/08/10 07:37:46;;;;;;;8.85;4.78;;;19.70;99.90;;;;;;5065650;28;20052;-72
2022/08/10 07:40:13;;;;;;;6.28;5.00;;;19.70;99.90;;;;;;5060961;28;20051;-72
2022/08/10 07:42:42;;;;;;;5.85;4.90;;;19.90;99.90;;;;;;5086947;28;20115;-72
2022/08/10 07:45:09;;;;;;;7.30;4.90;;;20.10;99.90;;;;;;5057591;28;20044;-72
2022/08/10 07:47:46;;;;;;;8.05;4.60;;;20.10;99.90;;;;;;5074231;28;20051;-72
2022/08/10 07:50:15;;;;;;;7.00;4.50;;;20.20;99.90;;;;;;5060479;28;20046;-72
2022/08/10 07:52:42;;;;;;;8.98;4.40;;;20.30;99.90;;;;;;5074339;28;20036;-72
2022/08/10 07:55:13;;;;;;;4.65;4.03;;;20.40;99.90;;;;;;5074294;28;20067;-72
2022/08/10 07:57:41;;;;;;;7.20;4.05;;;20.50;99.90;;;;;;5074202;28;20405;-72
2022/08/10 08:00:09;;;;;;;8.75;3.97;;;20.60;99.90;;;;;;5072750;28;20090;-72
2022/08/10 08:02:40;;;;;;;9.00;4.25;;;20.70;99.90;;;;;;5074302;28;20104;-72
2022/08/10 08:05:08;;;;;;;8.70;3.85;;;20.80;99.90;;;;;;5074344;28;20044;-72
2022/08/10 08:07:37;;;;;;;7.28;3.50;;;20.90;99.90;;;;;;5060172;28;20048;-72
2022/08/10 08:10:04;;;;;;;6.78;3.40;;;21.00;99.90;;;;;;5091877;28;20032;-72
2022/08/10 08:12:31;;;;;;;6.85;3.40;;;21.10;99.90;;;;;;5072102;28;20055;-72
2022/08/10 08:14:59;;;;;;;7.50;3.15;;;21.30;99.90;;;;;;5078792;28;20492;-72
2022/08/10 08:17:25;;;;;;;6.38;3.30;;;21.40;99.90;;;;;;5060921;28;20083;-72
2022/08/10 08:19:54;;;;;;;5.57;3.20;;;21.60;99.90;;;;;;5085279;28;20421;-72
2022/08/10 08:22:22;;;;;;;6.55;3.13;;;21.70;99.90;;;;;;5083872;28;20402;-72
2022/08/10 08:24:50;;;;;;;5.05;2.85;;;21.80;99.90;;;;;;5083148;28;20044;-72
2022/08/10 08:27:18;;;;;;;6.75;3.00;;;22.00;99.90;;;;;;5071093;28;20079;-72
2022/08/10 08:29:47;;;;;;;6.10;2.85;;;22.10;99.90;;;;;;5071461;28;20590;-72
2022/08/10 08:32:17;;;;;;;6.75;2.50;;;22.20;99.90;;;;;;5071953;28;20051;-72
2022/08/10 08:34:44;;;;;;;5.97;2.47;;;22.30;99.90;;;;;;5061776;28;20048;-72
2022/08/10 08:37:13;;;;;;;8.57;2.72;;;22.40;99.90;;;;;;5067171;28;20040;-71
2022/08/10 08:39:40;;;;;;;6.28;2.33;;;22.60;99.90;;;;;;5053526;28;20056;-72
2022/08/10 08:42:14;;;;;;;5.00;2.47;;;22.70;99.90;;;;;;5085570;28;20092;-72
2022/08/10 08:45:15;;;;;;;4.68;2.70;;;22.80;99.90;;;;;;5072869;28;20048;-72
2022/08/10 08:47:46;;;;;;;4.68;2.28;;;22.90;99.90;;;;;;5061212;28;20040;-72
2022/08/10 08:50:22;;;;;;;3.75;2.13;;;23.10;99.90;;;;;;5058038;28;20044;-72
2022/08/10 08:53:11;;;;;;;5.65;2.20;;;23.30;99.90;;;;;;5063256;28;20039;-72
2022/08/10 08:55:47;;;;;;;4.72;2.08;;;23.50;99.90;;;;;;5060187;28;20036;-73
2022/08/10 08:58:15;;;;;;;7.28;2.10;;;23.70;99.90;;;;;;5072008;28;20040;-72
2022/08/10 09:00:50;;;;;;;3.42;1.90;;;23.80;99.90;;;;;;5063497;28;20049;-72
2022/08/10 09:03:54;;;;;;;5.47;2.03;;;24.00;99.90;;;;;;5069671;28;20138;-72
2022/08/10 09:07:06;;;;;;;6.13;1.80;;;24.20;99.90;;;;;;5067382;28;20123;-72
2022/08/10 09:09:36;;;;;;;3.92;1.90;;;24.30;99.90;;;;;;5069085;28;20040;-72
2022/08/10 09:12:14;;;;;;;5.22;1.70;;;24.50;99.90;;;;;;5064747;28;20390;-71
2022/08/10 09:15:04;;;;;;;6.25;1.67;;;24.60;99.90;;;;;;5070656;28;20218;-72
2022/08/10 09:17:48;;;;;;;6.97;1.73;;;24.70;99.90;;;;;;5050398;28;20101;-72
2022/08/10 09:20:32;;;;;;;5.35;1.98;;;24.80;99.90;;;;;;5083943;28;20036;-72
2022/08/10 09:23:13;;;;;;;5.85;1.77;;;24.90;99.90;;;;;;5075389;28;20062;-72
2022/08/10 09:25:47;;;;;;;8.52;1.60;;;25.10;99.90;;;;;;5077893;28;20040;-72
2022/08/10 09:28:25;;;;;;;7.72;1.58;;;25.30;99.90;;;;;;5048756;28;20040;-72
2022/08/10 09:31:02;;;;;;;4.63;1.60;;;25.40;99.90;;;;;;5077786;28;20040;-72
2022/08/10 09:33:37;;;;;;;5.30;1.58;;;25.60;99.90;;;;;;5092022;28;20498;-72
2022/08/10 09:36:29;;;;;;;3.55;1.48;;;25.80;99.90;;;;;;5077922;28;20033;-72
2022/08/10 09:39:04;;;;;;;3.47;1.38;;;26.00;99.90;;;;;;5090751;28;20494;-72
2022/08/10 09:41:48;;;;;;;4.18;1.45;;;26.10;99.90;;;;;;5085583;28;20048;-71
2022/08/10 09:44:20;;;;;;;4.18;1.50;;;26.20;99.90;;;;;;5066571;28;20500;-72
2022/08/10 09:46:57;;;;;;;5.38;1.35;;;26.40;99.30;;;;;;5060529;28;20502;-72
2022/08/10 09:49:26;;;;;;;5.53;1.60;;;26.60;99.10;;;;;;5061449;28;20036;-72
2022/08/10 09:52:00;;;;;;;7.55;1.45;;;26.80;96.60;;;;;;5063049;28;20297;-72
2022/08/10 09:54:38;;;;;;;2.47;1.23;;;26.80;97.30;;;;;;5068458;28;20441;-71
2022/08/10 09:57:32;;;;;;;4.97;1.48;;;27.00;93.60;;;;;;5087100;28;20049;-72
2022/08/10 10:00:08;;;;;;;3.40;1.33;;;27.20;93.60;;;;;;5086409;28;20532;-72
2022/08/10 10:03:05;;;;;;;3.70;1.50;;;27.30;93.70;;;;;;5089956;28;20037;-71
2022/08/10 10:06:05;;;;;;;4.03;1.40;;;27.50;93.70;;;;;;5080870;28;20412;-72
2022/08/10 10:08:56;;;;;;;4.63;1.20;;;27.70;93.00;;;;;;5092923;28;20457;-72
2022/08/10 10:12:05;;;;;;;6.57;1.10;;;27.80;92.00;;;;;;5064373;28;20058;-72
2022/08/10 10:18:01;;;;;;;5.07;1.45;;;28.20;90.20;;;;;;5078946;28;20048;-72
2022/08/10 10:21:07;;;;;;;3.30;1.10;;;28.30;86.60;;;;;;5061720;28;20048;-72
2022/08/10 10:23:35;;;;;;;5.90;1.30;;;28.40;87.30;;;;;;5060143;28;20053;-71
2022/08/10 10:26:30;;;;;;;4.20;1.20;;;28.50;85.30;;;;;;5072121;28;20104;-72
2022/08/10 10:29:00;;;;;;;2.60;1.20;;;28.70;84.30;;;;;;5067378;28;20036;-72
2022/08/10 10:31:37;;;;;;;3.53;1.00;;;28.90;81.40;;;;;;5065106;28;20036;-72
2022/08/10 10:34:24;;;;;;;4.10;1.23;;;28.90;80.90;;;;;;5070667;28;20036;-72
2022/08/10 10:36:51;;;;;;;6.15;1.33;;;29.10;80.10;;;;;;5061791;28;20048;-72
2022/08/10 10:39:20;;;;;;;2.17;1.10;;;29.20;79.40;;;;;;5082200;28;20047;-72
2022/08/10 10:42:14;;;;;;;1.27;0.90;;;29.40;77.10;;;;;;5076370;28;20123;-72
2022/08/10 10:45:05;;;;;;;3.17;1.17;;;29.40;74.30;;;;;;5074341;28;20048;-72
2022/08/10 10:48:02;;;;;;;2.47;1.00;;;29.60;73.10;;;;;;5065292;28;20036;-72
2022/08/10 10:50:59;;;;;;;3.58;1.00;;;29.70;73.50;;;;;;5065959;28;20039;-71
2022/08/10 10:54:02;;;;;;;3.25;1.05;;;29.80;71.00;;;;;;5060059;28;20063;-72
2022/08/10 10:56:54;;;;;;;2.25;0.90;;;29.90;66.40;;;;;;5065698;28;20036;-72
2022/08/10 10:59:47;;;;;;;2.63;1.10;;;30.00;70.80;;;;;;5041519;28;20503;-71
2022/08/10 11:02:27;;;;;;;4.05;1.40;;;30.10;67.40;;;;;;5055164;28;20533;-72
2022/08/10 11:05:12;;;;;;;12.30;1.20;;;30.30;66.60;;;;;;5066666;28;20521;-72
2022/08/10 11:07:51;;;;;;;7.22;1.27;;;30.30;64.50;;;;;;5054908;28;20410;-72
2022/08/10 11:10:21;;;;;;;3.65;0.90;;;30.60;63.30;;;;;;5042079;28;20376;-71
2022/08/10 11:13:18;;;;;;;2.40;1.00;;;30.60;63.50;;;;;;5076608;28;20453;-72
2022/08/10 11:16:00;;;;;;;77.50;3.70;;;30.70;63.90;;;;;;5063167;28;20051;-71
2022/08/10 11:18:32;;;;;;;7.60;0.88;;;30.80;62.40;;;;;;5061001;28;20047;-72
2022/08/10 11:21:30;;;;;;;5.05;1.13;;;30.90;63.50;;;;;;5064993;28;20397;-72
2022/08/10 11:24:18;;;;;;;4.78;1.00;;;31.00;60.30;;;;;;5067754;28;20044;-72
2022/08/10 11:26:56;;;;;;;1.80;1.08;;;31.10;61.40;;;;;;5067842;28;20418;-72
2022/08/10 11:29:44;;;;;;;1.70;1.00;;;31.20;60.90;;;;;;5067022;28;20387;-72
2022/08/10 11:32:46;;;;;;;2.92;0.90;;;31.20;58.10;;;;;;5060810;28;20121;-72
2022/08/10 11:35:35;;;;;;;3.70;0.95;;;31.50;58.00;;;;;;5036260;28;20401;-72
2022/08/10 11:38:20;;;;;;;3.33;0.93;;;31.60;59.40;;;;;;5068289;28;20047;-72
2022/08/10 11:41:02;;;;;;;2.50;0.70;;;31.70;56.30;;;;;;5074246;28;20452;-72
2022/08/10 11:43:28;;;;;;;1.80;1.02;;;31.70;56.30;;;;;;5048460;28;20447;-72
2022/08/10 11:46:04;;;;;;;1.67;0.77;;;31.80;57.10;;;;;;5074680;28;20417;-72
2022/08/10 11:48:37;;;;;;;5.25;0.70;;;31.90;55.90;;;;;;5080678;28;20418;-70
2022/08/10 11:51:10;;;;;;;3.30;0.90;;;32.10;56.20;;;;;;5054501;28;20483;-72
2022/08/10 11:53:55;;;;;;;2.95;0.90;;;32.20;53.70;;;;;;5067474;28;20513;-72
2022/08/10 11:56:37;;;;;;;1.67;0.80;;;32.00;51.20;;;;;;5074141;28;20076;-72
2022/08/10 12:01:49;;;;;;;1.33;0.70;;;32.20;51.60;;;;;;5060970;28;20101;-71
2022/08/10 12:04:17;;;;;;;3.03;0.80;;;32.20;52.80;;;;;;5060530;28;20049;-72
2022/08/10 12:06:44;;;;;;;4.10;0.73;;;32.30;53.30;;;;;;5061219;28;20520;-72
2022/08/10 12:09:11;;;;;;;3.00;0.85;;;32.40;51.00;;;;;;5070383;28;20055;-72
2022/08/10 12:11:38;;;;;;;3.13;0.90;;;32.60;52.10;;;;;;5089903;28;20118;-72
2022/08/10 12:14:17;;;;;;;2.70;0.80;;;32.60;50.60;;;;;;5060128;28;20032;-72
2022/08/10 12:16:47;;;;;;;3.10;0.73;;;32.70;53.40;;;;;;5053392;28;20052;-71
2022/08/10 12:19:22;;;;;;;1.30;0.65;;;32.80;51.30;;;;;;5073004;28;20044;-72
2022/08/10 12:22:15;;;;;;;2.67;0.98;;;33.00;49.50;;;;;;5083700;28;20044;-72
2022/08/10 12:24:47;;;;;;;1.63;0.75;;;33.00;51.50;;;;;;5085603;28;20093;-72
2022/08/10 12:27:25;;;;;;;3.30;0.80;;;33.00;49.00;;;;;;5087472;28;20043;-72
2022/08/10 12:30:04;;;;;;;2.72;0.90;;;33.00;51.70;;;;;;5077048;28;20035;-73
2022/08/10 12:33:08;;;;;;;2.60;0.70;;;33.10;47.50;;;;;;5093232;28;20039;-72
2022/08/10 12:35:36;;;;;;;1.60;0.80;;;33.20;48.40;;;;;;5098592;28;20073;-72
2022/08/10 12:38:22;;;;;;;1.80;0.70;;;33.20;49.90;;;;;;5103606;28;20048;-72
2022/08/10 12:40:59;;;;;;;2.13;1.00;;;33.30;50.60;;;;;;5086469;28;20040;-72
2022/08/10 12:43:28;;;;;;;4.43;0.80;;;33.40;49.00;;;;;;5093634;28;20379;-72
2022/08/10 12:46:10;;;;;;;3.35;0.80;;;33.60;48.80;;;;;;5107907;28;20031;-72
2022/08/10 12:48:46;;;;;;;3.00;0.70;;;33.80;47.80;;;;;;5085278;28;20056;-72
2022/08/10 12:51:22;;;;;;;2.33;0.90;;;33.80;47.90;;;;;;5076061;28;20087;-72
2022/08/10 12:53:55;;;;;;;1.27;0.70;;;34.00;48.90;;;;;;5103465;28;20479;-72
2022/08/10 12:56:26;;;;;;;4.03;0.90;;;34.10;47.10;;;;;;5093534;28;20035;-72
2022/08/10 12:58:53;;;;;;;1.95;0.90;;;34.10;47.20;;;;;;5090442;28;20080;-72
2022/08/10 13:01:26;;;;;;;1.70;0.57;;;34.10;47.00;;;;;;5083190;28;20115;-72
2022/08/10 13:03:56;;;;;;;2.97;0.70;;;34.30;46.50;;;;;;5093798;28;20043;-72
2022/08/10 13:06:23;;;;;;;2.08;0.63;;;34.30;45.30;;;;;;5093378;28;20051;-72
2022/08/10 13:11:58;;;;;;;3.22;0.98;;;34.10;44.50;;;;;;5084568;28;20054;-72
2022/08/10 13:14:39;;;;;;;3.58;1.00;;;34.30;46.20;;;;;;5083084;28;20044;-71
2022/08/10 13:17:06;;;;;;;2.63;0.60;;;34.40;46.60;;;;;;5091208;28;20062;-72
2022/08/10 13:19:40;;;;;;;2.13;0.90;;;34.40;45.60;;;;;;5073138;28;20047;-72
2022/08/10 13:22:07;;;;;;;1.55;0.80;;;34.60;44.60;;;;;;5057806;28;20040;-72
2022/08/10 13:24:38;;;;;;;2.67;0.80;;;34.70;44.60;;;;;;5069327;28;20479;-72
2022/08/10 13:27:10;;;;;;;4.68;0.85;;;34.70;45.40;;;;;;5061042;28;20048;-72